sensor_id;sensor_type;location;lat;lon;timestamp;pressure;altitude;pressure_sealevel;temperature;humidity
36692;BME280;22678;52.052;4.242;2023-12-20T00:00:03;101698.09;;;7.45;100.00
36692;BME280;22678;52.052;4.242;2023-12-20T00:02:28;101695.44;;;7.42;100.00
36692;BME280;22678;52.052;4.242;2023-12-20T00:04:53;101691.94;;;7.40;100.00
36692;BME280;22678;52.052;4.242;2023-12-20T00:07:19;101698.84;;;7.37;100.00
36692;BME280;22678;52.052;4.242;2023-12-20T00:09:44;101693.63;;;7.37;100.00
36692;BME280;22678;52.052;4.242;2023-12-20T00:12:10;101675.22;;;7.33;100.00
36692;BME280;22678;52.052;4.242;2023-12-20T00:14:35;101651.44;;;7.21;100.00
36692;BME280;22678;52.052;4.242;2023-12-20T00:17:01;101685.88;;;7.42;100.00
36692;BME280;22678;52.052;4.242;2023-12-20T00:19:26;101672.72;;;7.39;99.75
36692;BME280;22678;52.052;4.242;2023-12-20T00:21:51;101688.66;;;7.51;99.56
36692;BME280;22678;52.052;4.242;2023-12-20T00:24:16;101655.03;;;7.26;99.26
36692;BME280;22678;52.052;4.242;2023-12-20T00:26:42;101694.69;;;7.49;98.94
36692;BME280;22678;52.052;4.242;2023-12-20T00:29:08;101692.88;;;7.45;98.39
36692;BME280;22678;52.052;4.242;2023-12-20T00:31:33;101667.22;;;7.25;98.69
36692;BME280;22678;52.052;4.242;2023-12-20T00:33:58;101699.88;;;7.46;98.35
36692;BME280;22678;52.052;4.242;2023-12-20T00:36:24;101692.81;;;7.42;98.32
36692;BME280;22678;52.052;4.242;2023-12-20T00:38:49;101690.13;;;7.37;98.45
36692;BME280;22678;52.052;4.242;2023-12-20T00:41:15;101709.38;;;7.39;98.61
36692;BME280;22678;52.052;4.242;2023-12-20T00:43:40;101693.59;;;7.36;98.35
36692;BME280;22678;52.052;4.242;2023-12-20T00:46:05;101683.06;;;7.33;98.81
36692;BME280;22678;52.052;4.242;2023-12-20T00:48:31;101676.88;;;7.28;99.04
36692;BME280;22678;52.052;4.242;2023-12-20T00:50:57;101693.66;;;7.39;99.30
36692;BME280;22678;52.052;4.242;2023-12-20T00:53:22;101676.09;;;7.32;99.54
36692;BME280;22678;52.052;4.242;2023-12-20T00:55:48;101660.19;;;7.23;99.65
36692;BME280;22678;52.052;4.242;2023-12-20T00:58:13;101704.31;;;7.48;99.71
36692;BME280;22678;52.052;4.242;2023-12-20T01:00:40;101669.09;;;7.31;99.46
36692;BME280;22678;52.052;4.242;2023-12-20T01:03:06;101660.19;;;7.23;99.69
36692;BME280;22678;52.052;4.242;2023-12-20T01:05:32;101660.19;;;7.23;99.49
36692;BME280;22678;52.052;4.242;2023-12-20T01:07:57;101688.34;;;7.36;99.49
36692;BME280;22678;52.052;4.242;2023-12-20T01:10:22;101684.03;;;7.36;99.58
36692;BME280;22678;52.052;4.242;2023-12-20T01:12:48;101672.66;;;7.36;99.63
36692;BME280;22678;52.052;4.242;2023-12-20T01:15:13;101673.47;;;7.32;99.50
36692;BME280;22678;52.052;4.242;2023-12-20T01:17:38;101693.84;;;7.48;99.35
36692;BME280;22678;52.052;4.242;2023-12-20T01:20:04;101670.84;;;7.32;99.48
36692;BME280;22678;52.052;4.242;2023-12-20T01:22:29;101690.19;;;7.40;98.96
36692;BME280;22678;52.052;4.242;2023-12-20T01:24:55;101647.06;;;7.19;99.08
36692;BME280;22678;52.052;4.242;2023-12-20T01:27:20;101692.00;;;7.44;98.51
36692;BME280;22678;52.052;4.242;2023-12-20T01:29:46;101688.59;;;7.48;98.55
36692;BME280;22678;52.052;4.242;2023-12-20T01:32:11;101702.69;;;7.57;98.26
36692;BME280;22678;52.052;4.242;2023-12-20T01:34:36;101658.78;;;7.40;97.45
36692;BME280;22678;52.052;4.242;2023-12-20T01:37:02;101672.13;;;7.54;98.07
36692;BME280;22678;52.052;4.242;2023-12-20T01:39:27;101669.47;;;7.52;97.85
36692;BME280;22678;52.052;4.242;2023-12-20T01:41:53;101680.94;;;7.59;98.17
36692;BME280;22678;52.052;4.242;2023-12-20T01:44:18;101664.19;;;7.49;98.61
36692;BME280;22678;52.052;4.242;2023-12-20T01:46:43;101660.56;;;7.43;98.47
36692;BME280;22678;52.052;4.242;2023-12-20T01:49:09;101690.50;;;7.57;98.15
36692;BME280;22678;52.052;4.242;2023-12-20T01:51:35;101672.91;;;7.48;97.72
36692;BME280;22678;52.052;4.242;2023-12-20T01:54:01;101689.56;;;7.55;97.84
36692;BME280;22678;52.052;4.242;2023-12-20T01:56:28;101687.81;;;7.52;98.05
36692;BME280;22678;52.052;4.242;2023-12-20T01:58:55;101681.47;;;7.41;98.04
36692;BME280;22678;52.052;4.242;2023-12-20T02:01:21;101691.91;;;7.38;98.52
36692;BME280;22678;52.052;4.242;2023-12-20T02:03:47;101685.00;;;7.43;98.47
36692;BME280;22678;52.052;4.242;2023-12-20T02:06:13;101661.91;;;7.21;98.77
36692;BME280;22678;52.052;4.242;2023-12-20T02:08:38;101672.63;;;7.34;98.93
36692;BME280;22678;52.052;4.242;2023-12-20T02:11:03;101661.13;;;7.25;98.84
36692;BME280;22678;52.052;4.242;2023-12-20T02:13:30;101677.78;;;7.30;98.92
36692;BME280;22678;52.052;4.242;2023-12-20T02:15:56;101682.97;;;7.27;98.36
36692;BME280;22678;52.052;4.242;2023-12-20T02:18:21;101706.78;;;7.41;98.29
36692;BME280;22678;52.052;4.242;2023-12-20T02:20:46;101681.38;;;7.35;97.96
36692;BME280;22678;52.052;4.242;2023-12-20T02:23:12;101701.56;;;7.42;98.12
36692;BME280;22678;52.052;4.242;2023-12-20T02:25:37;101657.63;;;7.26;97.93
36692;BME280;22678;52.052;4.242;2023-12-20T02:28:03;101667.31;;;7.30;98.41
36692;BME280;22678;52.052;4.242;2023-12-20T02:30:29;101677.91;;;7.37;98.35
36692;BME280;22678;52.052;4.242;2023-12-20T02:32:54;101655.94;;;7.28;98.39
36692;BME280;22678;52.052;4.242;2023-12-20T02:35:20;101653.38;;;7.31;98.46
36692;BME280;22678;52.052;4.242;2023-12-20T02:37:45;101672.84;;;7.45;98.42
36692;BME280;22678;52.052;4.242;2023-12-20T02:40:11;101661.38;;;7.39;98.63
36692;BME280;22678;52.052;4.242;2023-12-20T02:42:36;101641.25;;;7.36;98.25
36692;BME280;22678;52.052;4.242;2023-12-20T02:45:02;101665.94;;;7.50;98.16
36692;BME280;22678;52.052;4.242;2023-12-20T02:47:27;101641.25;;;7.36;98.15
36692;BME280;22678;52.052;4.242;2023-12-20T02:49:54;101621.84;;;7.22;98.13
36692;BME280;22678;52.052;4.242;2023-12-20T02:52:20;101569.84;;;6.93;97.87
36692;BME280;22678;52.052;4.242;2023-12-20T02:54:45;101651.91;;;7.45;97.99
36692;BME280;22678;52.052;4.242;2023-12-20T02:57:10;101635.91;;;7.30;97.85
36692;BME280;22678;52.052;4.242;2023-12-20T02:59:36;101657.09;;;7.42;97.94
36692;BME280;22678;52.052;4.242;2023-12-20T03:02:01;101627.25;;;7.32;97.33
36692;BME280;22678;52.052;4.242;2023-12-20T03:04:26;101655.38;;;7.44;96.66
36692;BME280;22678;52.052;4.242;2023-12-20T03:06:52;101608.69;;;7.17;96.46
36692;BME280;22678;52.052;4.242;2023-12-20T03:09:17;101632.34;;;7.25;96.62
36692;BME280;22678;52.052;4.242;2023-12-20T03:11:42;101641.19;;;7.33;96.08
36692;BME280;22678;52.052;4.242;2023-12-20T03:14:08;101650.91;;;7.39;96.32
36692;BME280;22678;52.052;4.242;2023-12-20T03:16:33;101623.63;;;7.26;96.43
36692;BME280;22678;52.052;4.242;2023-12-20T03:18:58;101643.03;;;7.37;96.56
36692;BME280;22678;52.052;4.242;2023-12-20T03:21:23;101633.16;;;7.21;96.07
36692;BME280;22678;52.052;4.242;2023-12-20T03:23:49;101652.41;;;7.26;95.79
36692;BME280;22678;52.052;4.242;2023-12-20T03:26:14;101642.97;;;7.34;95.65
36692;BME280;22678;52.052;4.242;2023-12-20T03:28:40;101660.44;;;7.35;95.66
36692;BME280;22678;52.052;4.242;2023-12-20T03:31:05;101639.31;;;7.26;96.32
36692;BME280;22678;52.052;4.242;2023-12-20T03:33:30;101645.38;;;7.22;95.79
36692;BME280;22678;52.052;4.242;2023-12-20T03:35:56;101654.41;;;7.39;96.35
36692;BME280;22678;52.052;4.242;2023-12-20T03:38:22;101620.94;;;7.21;96.24
36692;BME280;22678;52.052;4.242;2023-12-20T03:40:49;101637.63;;;7.28;96.25
36692;BME280;22678;52.052;4.242;2023-12-20T03:43:14;101635.13;;;7.34;96.06
36692;BME280;22678;52.052;4.242;2023-12-20T03:45:40;101632.47;;;7.32;96.46
36692;BME280;22678;52.052;4.242;2023-12-20T03:48:05;101635.13;;;7.34;96.05
36692;BME280;22678;52.052;4.242;2023-12-20T03:50:30;101611.22;;;7.14;95.81
36692;BME280;22678;52.052;4.242;2023-12-20T03:52:56;101625.28;;;7.21;96.10
36692;BME280;22678;52.052;4.242;2023-12-20T03:55:21;101552.22;;;6.81;96.57
36692;BME280;22678;52.052;4.242;2023-12-20T03:57:47;101635.94;;;7.31;96.47
36692;BME280;22678;52.052;4.242;2023-12-20T04:00:12;101639.41;;;7.29;96.76
36692;BME280;22678;52.052;4.242;2023-12-20T04:02:38;101646.44;;;7.33;96.96
36692;BME280;22678;52.052;4.242;2023-12-20T04:05:05;101630.63;;;7.27;97.17
36692;BME280;22678;52.052;4.242;2023-12-20T04:07:30;101650.78;;;7.32;96.95
36692;BME280;22678;52.052;4.242;2023-12-20T04:09:56;101652.69;;;7.41;95.91
36692;BME280;22678;52.052;4.242;2023-12-20T04:12:21;101642.22;;;7.41;95.72
36692;BME280;22678;52.052;4.242;2023-12-20T04:14:46;101654.44;;;7.41;95.36
36692;BME280;22678;52.052;4.242;2023-12-20T04:17:12;101632.44;;;7.31;94.67
36692;BME280;22678;52.052;4.242;2023-12-20T04:19:37;101644.84;;;7.41;94.73
36692;BME280;22678;52.052;4.242;2023-12-20T04:22:03;101624.44;;;7.22;94.65
36692;BME280;22678;52.052;4.242;2023-12-20T04:24:28;101650.09;;;7.41;94.54
36692;BME280;22678;52.052;4.242;2023-12-20T04:26:53;101602.63;;;7.21;95.06
36692;BME280;22678;52.052;4.242;2023-12-20T04:29:19;101624.66;;;7.34;95.11
36692;BME280;22678;52.052;4.242;2023-12-20T04:31:44;101612.28;;;7.25;95.12
36692;BME280;22678;52.052;4.242;2023-12-20T04:34:09;101607.16;;;7.31;95.17
36692;BME280;22678;52.052;4.242;2023-12-20T04:36:35;101606.28;;;7.31;95.22
36692;BME280;22678;52.052;4.242;2023-12-20T04:39:00;101616.00;;;7.38;95.29
36692;BME280;22678;52.052;4.242;2023-12-20T04:41:25;101627.38;;;7.40;95.02
36692;BME280;22678;52.052;4.242;2023-12-20T04:43:52;101613.34;;;7.35;94.89
36692;BME280;22678;52.052;4.242;2023-12-20T04:46:18;101609.84;;;7.36;95.13
36692;BME280;22678;52.052;4.242;2023-12-20T04:48:43;101548.25;;;7.03;94.98
36692;BME280;22678;52.052;4.242;2023-12-20T04:51:08;101601.19;;;7.39;95.21
36692;BME280;22678;52.052;4.242;2023-12-20T04:53:34;101595.97;;;7.40;95.36
36692;BME280;22678;52.052;4.242;2023-12-20T04:55:59;101598.59;;;7.40;95.88
36692;BME280;22678;52.052;4.242;2023-12-20T04:58:24;101587.13;;;7.32;95.43
36692;BME280;22678;52.052;4.242;2023-12-20T05:00:50;101588.81;;;7.30;95.20
36692;BME280;22678;52.052;4.242;2023-12-20T05:03:15;101584.22;;;7.16;95.54
36692;BME280;22678;52.052;4.242;2023-12-20T05:05:41;101615.84;;;7.29;95.41
36692;BME280;22678;52.052;4.242;2023-12-20T05:08:06;101620.31;;;7.36;95.71
36692;BME280;22678;52.052;4.242;2023-12-20T05:10:31;101615.94;;;7.33;95.69
36692;BME280;22678;52.052;4.242;2023-12-20T05:12:57;101622.09;;;7.37;95.69
36692;BME280;22678;52.052;4.242;2023-12-20T05:15:22;101619.38;;;7.31;95.70
36692;BME280;22678;52.052;4.242;2023-12-20T05:17:47;101610.63;;;7.29;95.80
36692;BME280;22678;52.052;4.242;2023-12-20T05:20:13;101620.25;;;7.33;95.98
36692;BME280;22678;52.052;4.242;2023-12-20T05:22:38;101628.06;;;7.30;96.50
36692;BME280;22678;52.052;4.242;2023-12-20T05:25:04;101614.72;;;7.14;96.58
36692;BME280;22678;52.052;4.242;2023-12-20T05:27:29;101591.97;;;7.10;96.94
36692;BME280;22678;52.052;4.242;2023-12-20T05:29:55;101632.44;;;7.31;97.08
36692;BME280;22678;52.052;4.242;2023-12-20T05:32:23;101634.38;;;7.41;97.15
36692;BME280;22678;52.052;4.242;2023-12-20T05:34:48;101579.06;;;7.21;97.07
36692;BME280;22678;52.052;4.242;2023-12-20T05:37:13;101634.44;;;7.44;96.81
36692;BME280;22678;52.052;4.242;2023-12-20T05:39:39;101620.59;;;7.51;96.58
36692;BME280;22678;52.052;4.242;2023-12-20T05:42:04;101610.09;;;7.48;96.38
36692;BME280;22678;52.052;4.242;2023-12-20T05:44:29;101592.50;;;7.41;96.20
36692;BME280;22678;52.052;4.242;2023-12-20T05:46:55;101603.16;;;7.53;96.20
36692;BME280;22678;52.052;4.242;2023-12-20T05:49:20;101595.16;;;7.43;96.00
36692;BME280;22678;52.052;4.242;2023-12-20T05:51:47;101604.84;;;7.48;96.22
36692;BME280;22678;52.052;4.242;2023-12-20T05:54:12;101571.44;;;7.32;95.99
36692;BME280;22678;52.052;4.242;2023-12-20T05:56:37;101610.28;;;7.61;96.25
36692;BME280;22678;52.052;4.242;2023-12-20T05:59:03;101595.28;;;7.50;96.04
36692;BME280;22678;52.052;4.242;2023-12-20T06:01:28;101533.59;;;7.11;95.96
36692;BME280;22678;52.052;4.242;2023-12-20T06:03:53;101597.06;;;7.53;95.68
36692;BME280;22678;52.052;4.242;2023-12-20T06:06:19;101599.75;;;7.58;95.48
36692;BME280;22678;52.052;4.242;2023-12-20T06:08:44;101520.66;;;7.21;95.33
36692;BME280;22678;52.052;4.242;2023-12-20T06:11:09;101553.22;;;7.40;95.53
36692;BME280;22678;52.052;4.242;2023-12-20T06:13:35;101570.91;;;7.54;95.89
36692;BME280;22678;52.052;4.242;2023-12-20T06:16:00;101577.97;;;7.59;96.12
36692;BME280;22678;52.052;4.242;2023-12-20T06:18:26;101582.34;;;7.60;96.18
36692;BME280;22678;52.052;4.242;2023-12-20T06:20:51;101567.44;;;7.56;96.11
36692;BME280;22678;52.052;4.242;2023-12-20T06:23:17;101586.72;;;7.61;95.38
36692;BME280;22678;52.052;4.242;2023-12-20T06:25:42;101591.06;;;7.59;95.44
36692;BME280;22678;52.052;4.242;2023-12-20T06:28:07;101592.00;;;7.64;95.78
36692;BME280;22678;52.052;4.242;2023-12-20T06:30:35;101566.38;;;7.44;95.76
36692;BME280;22678;52.052;4.242;2023-12-20T06:33:00;101588.44;;;7.59;95.71
36692;BME280;22678;52.052;4.242;2023-12-20T06:35:25;101571.75;;;7.53;95.58
36692;BME280;22678;52.052;4.242;2023-12-20T06:37:51;101565.53;;;7.45;96.02
36692;BME280;22678;52.052;4.242;2023-12-20T06:40:17;101577.91;;;7.54;96.30
36692;BME280;22678;52.052;4.242;2023-12-20T06:42:43;101577.03;;;7.57;96.36
36692;BME280;22678;52.052;4.242;2023-12-20T06:45:09;101587.59;;;7.60;96.40
36692;BME280;22678;52.052;4.242;2023-12-20T06:47:34;101569.16;;;7.55;96.78
36692;BME280;22678;52.052;4.242;2023-12-20T06:50:00;101553.38;;;7.49;96.77
36692;BME280;22678;52.052;4.242;2023-12-20T06:52:26;101588.53;;;7.65;96.63
36692;BME280;22678;52.052;4.242;2023-12-20T06:54:51;101551.69;;;7.52;96.28
36692;BME280;22678;52.052;4.242;2023-12-20T06:57:17;101556.91;;;7.51;96.68
36692;BME280;22678;52.052;4.242;2023-12-20T06:59:42;101552.50;;;7.48;96.67
36692;BME280;22678;52.052;4.242;2023-12-20T07:02:08;101536.88;;;7.53;96.57
36692;BME280;22678;52.052;4.242;2023-12-20T07:04:34;101524.53;;;7.46;96.69
36692;BME280;22678;52.052;4.242;2023-12-20T07:06:59;101552.63;;;7.58;96.62
36692;BME280;22678;52.052;4.242;2023-12-20T07:09:26;101576.28;;;7.64;96.50
36692;BME280;22678;52.052;4.242;2023-12-20T07:11:52;101560.41;;;7.51;96.82
36692;BME280;22678;52.052;4.242;2023-12-20T07:14:17;101554.38;;;7.56;97.15
36692;BME280;22678;52.052;4.242;2023-12-20T07:16:42;101550.81;;;7.53;97.12
36692;BME280;22678;52.052;4.242;2023-12-20T07:19:08;101563.09;;;7.58;97.22
36692;BME280;22678;52.052;4.242;2023-12-20T07:21:33;101536.78;;;7.47;97.52
36692;BME280;22678;52.052;4.242;2023-12-20T07:23:58;101541.94;;;7.42;97.65
36692;BME280;22678;52.052;4.242;2023-12-20T07:26:24;101553.47;;;7.57;97.70
36692;BME280;22678;52.052;4.242;2023-12-20T07:28:49;101536.75;;;7.45;97.37
36692;BME280;22678;52.052;4.242;2023-12-20T07:31:18;101533.13;;;7.37;97.85
36692;BME280;22678;52.052;4.242;2023-12-20T07:33:43;101553.31;;;7.46;98.10
36692;BME280;22678;52.052;4.242;2023-12-20T07:36:09;101547.19;;;7.42;98.57
36692;BME280;22678;52.052;4.242;2023-12-20T07:38:34;101556.75;;;7.42;99.05
36692;BME280;22678;52.052;4.242;2023-12-20T07:40:59;101578.72;;;7.51;99.15
36692;BME280;22678;52.052;4.242;2023-12-20T07:43:25;101587.50;;;7.57;99.57
36692;BME280;22678;52.052;4.242;2023-12-20T07:45:50;101564.63;;;7.43;99.80
36692;BME280;22678;52.052;4.242;2023-12-20T07:48:16;101561.19;;;7.46;99.82
36692;BME280;22678;52.052;4.242;2023-12-20T07:50:41;101592.75;;;7.57;100.00
36692;BME280;22678;52.052;4.242;2023-12-20T07:53:07;101587.47;;;7.53;99.44
36692;BME280;22678;52.052;4.242;2023-12-20T07:55:32;101572.59;;;7.49;99.37
36692;BME280;22678;52.052;4.242;2023-12-20T07:57:58;101601.63;;;7.65;99.45
36692;BME280;22678;52.052;4.242;2023-12-20T08:00:24;101574.22;;;7.43;99.11
36692;BME280;22678;52.052;4.242;2023-12-20T08:02:49;101580.53;;;7.56;99.21
36692;BME280;22678;52.052;4.242;2023-12-20T08:05:14;101590.22;;;7.60;99.34
36692;BME280;22678;52.052;4.242;2023-12-20T08:07:40;101563.72;;;7.41;99.43
36692;BME280;22678;52.052;4.242;2023-12-20T08:10:05;101580.59;;;7.59;99.53
36692;BME280;22678;52.052;4.242;2023-12-20T08:12:31;101560.44;;;7.54;99.27
36692;BME280;22678;52.052;4.242;2023-12-20T08:14:56;101559.78;;;7.68;99.65
36692;BME280;22678;52.052;4.242;2023-12-20T08:17:22;101595.75;;;7.80;99.19
36692;BME280;22678;52.052;4.242;2023-12-20T08:19:48;101566.81;;;7.72;98.96
36692;BME280;22678;52.052;4.242;2023-12-20T08:22:13;101594.22;;;7.94;98.63
36692;BME280;22678;52.052;4.242;2023-12-20T08:24:39;101558.22;;;7.79;98.48
36692;BME280;22678;52.052;4.242;2023-12-20T08:27:04;101595.06;;;7.93;98.06
36692;BME280;22678;52.052;4.242;2023-12-20T08:29:30;101600.28;;;7.92;97.96
36692;BME280;22678;52.052;4.242;2023-12-20T08:31:56;101601.19;;;7.92;97.70
36692;BME280;22678;52.052;4.242;2023-12-20T08:34:21;101603.69;;;7.87;97.95
36692;BME280;22678;52.052;4.242;2023-12-20T08:36:47;101616.91;;;7.94;97.98
36692;BME280;22678;52.052;4.242;2023-12-20T08:39:12;101601.06;;;7.86;98.37
36692;BME280;22678;52.052;4.242;2023-12-20T08:41:37;101607.19;;;7.86;98.38
36692;BME280;22678;52.052;4.242;2023-12-20T08:44:03;101615.97;;;7.90;98.52
36692;BME280;22678;52.052;4.242;2023-12-20T08:46:28;101618.69;;;7.98;98.33
36692;BME280;22678;52.052;4.242;2023-12-20T08:48:54;101612.59;;;7.99;98.53
36692;BME280;22678;52.052;4.242;2023-12-20T08:51:19;101608.16;;;7.93;98.50
36692;BME280;22678;52.052;4.242;2023-12-20T08:53:46;101590.81;;;8.00;98.58
36692;BME280;22678;52.052;4.242;2023-12-20T08:56:12;101583.06;;;8.09;98.31
36692;BME280;22678;52.052;4.242;2023-12-20T08:58:38;101576.97;;;8.10;97.96
36692;BME280;22678;52.052;4.242;2023-12-20T09:01:03;101592.88;;;8.24;98.17
36692;BME280;22678;52.052;4.242;2023-12-20T09:03:28;101560.31;;;8.05;97.98
36692;BME280;22678;52.052;4.242;2023-12-20T09:05:54;101551.63;;;8.09;98.16
36692;BME280;22678;52.052;4.242;2023-12-20T09:08:19;101578.13;;;8.31;97.96
36692;BME280;22678;52.052;4.242;2023-12-20T09:10:44;101550.00;;;8.17;98.04
36692;BME280;22678;52.052;4.242;2023-12-20T09:13:10;101505.09;;;7.88;98.04
36692;BME280;22678;52.052;4.242;2023-12-20T09:15:35;101557.97;;;8.25;98.09
36692;BME280;22678;52.052;4.242;2023-12-20T09:18:01;101560.59;;;8.27;98.06
36692;BME280;22678;52.052;4.242;2023-12-20T09:20:26;101573.84;;;8.39;97.65
36692;BME280;22678;52.052;4.242;2023-12-20T09:22:52;101590.56;;;8.44;97.40
36692;BME280;22678;52.052;4.242;2023-12-20T09:25:18;101591.38;;;8.43;97.21
36692;BME280;22678;52.052;4.242;2023-12-20T09:27:43;101597.59;;;8.48;96.99
36692;BME280;22678;52.052;4.242;2023-12-20T09:30:09;101590.59;;;8.47;96.86
36692;BME280;22678;52.052;4.242;2023-12-20T09:32:35;101583.59;;;8.46;96.76
36692;BME280;22678;52.052;4.242;2023-12-20T09:35:00;101581.91;;;8.51;96.46
36692;BME280;22678;52.052;4.242;2023-12-20T09:37:26;101565.34;;;8.54;96.58
36692;BME280;22678;52.052;4.242;2023-12-20T09:39:52;101575.88;;;8.58;96.49
36692;BME280;22678;52.052;4.242;2023-12-20T09:42:24;101592.56;;;8.67;96.01
36692;BME280;22678;52.052;4.242;2023-12-20T09:44:51;101589.19;;;8.77;96.35
36692;BME280;22678;52.052;4.242;2023-12-20T09:47:19;101587.50;;;8.82;94.86
36692;BME280;22678;52.052;4.242;2023-12-20T09:49:46;101578.72;;;8.80;94.07
36692;BME280;22678;52.052;4.242;2023-12-20T09:52:12;101581.28;;;8.72;93.96
36692;BME280;22678;52.052;4.242;2023-12-20T09:54:39;101558.50;;;8.68;93.95
36692;BME280;22678;52.052;4.242;2023-12-20T09:57:06;101598.22;;;9.04;93.54
36692;BME280;22678;52.052;4.242;2023-12-20T09:59:31;101589.50;;;9.06;93.37
36692;BME280;22678;52.052;4.242;2023-12-20T10:01:57;101583.31;;;8.98;93.27
36692;BME280;22678;52.052;4.242;2023-12-20T10:04:23;101588.56;;;8.98;93.47
36692;BME280;22678;52.052;4.242;2023-12-20T10:06:48;101568.28;;;8.83;93.61
36692;BME280;22678;52.052;4.242;2023-12-20T10:09:14;101582.28;;;8.85;93.02
36692;BME280;22678;52.052;4.242;2023-12-20T10:11:40;101607.78;;;8.99;93.13
36692;BME280;22678;52.052;4.242;2023-12-20T10:14:10;101616.53;;;9.01;93.25
36692;BME280;22678;52.052;4.242;2023-12-20T10:16:36;101567.34;;;8.76;93.78
36692;BME280;22678;52.052;4.242;2023-12-20T10:19:01;101599.88;;;8.92;93.94
36692;BME280;22678;52.052;4.242;2023-12-20T10:21:27;101577.00;;;8.81;94.10
36692;BME280;22678;52.052;4.242;2023-12-20T10:23:56;101596.41;;;8.97;94.31
36692;BME280;22678;52.052;4.242;2023-12-20T10:26:23;101584.97;;;8.90;94.01
36692;BME280;22678;52.052;4.242;2023-12-20T10:29:00;101575.28;;;8.86;94.47
36692;BME280;22678;52.052;4.242;2023-12-20T10:31:32;101597.34;;;9.03;94.57
36692;BME280;22678;52.052;4.242;2023-12-20T10:33:59;101593.88;;;9.04;94.57
36692;BME280;22678;52.052;4.242;2023-12-20T10:36:29;101600.84;;;9.04;94.54
36692;BME280;22678;52.052;4.242;2023-12-20T10:38:56;101591.22;;;9.03;94.82
36692;BME280;22678;52.052;4.242;2023-12-20T10:41:30;101584.28;;;9.11;94.96
36692;BME280;22678;52.052;4.242;2023-12-20T10:44:00;101575.63;;;9.18;94.34
36692;BME280;22678;52.052;4.242;2023-12-20T10:46:26;101534.34;;;8.99;94.34
36692;BME280;22678;52.052;4.242;2023-12-20T10:48:53;101547.66;;;9.20;94.32
36692;BME280;22678;52.052;4.242;2023-12-20T10:51:20;101566.28;;;9.50;93.95
36692;BME280;22678;52.052;4.242;2023-12-20T10:53:47;101561.94;;;9.56;93.29
36692;BME280;22678;52.052;4.242;2023-12-20T10:56:16;101564.63;;;9.65;93.08
36692;BME280;22678;52.052;4.242;2023-12-20T10:58:43;101447.91;;;9.17;92.26
36692;BME280;22678;52.052;4.242;2023-12-20T11:01:08;101534.13;;;9.89;92.24
36692;BME280;22678;52.052;4.242;2023-12-20T11:03:35;101529.78;;;9.91;91.61
36692;BME280;22678;52.052;4.242;2023-12-20T11:09:33;101542.91;;;9.88;90.26
36692;BME280;22678;52.052;4.242;2023-12-20T11:12:35;101562.13;;;9.81;90.07
36692;BME280;22678;52.052;4.242;2023-12-20T11:15:03;101542.72;;;9.60;89.76
36692;BME280;22678;52.052;4.242;2023-12-20T11:17:29;101562.88;;;9.64;90.18
36692;BME280;22678;52.052;4.242;2023-12-20T11:22:22;101540.94;;;9.58;90.90
36692;BME280;22678;52.052;4.242;2023-12-20T11:24:48;101515.50;;;9.47;91.29
36692;BME280;22678;52.052;4.242;2023-12-20T11:27:14;101523.41;;;9.57;91.18
36692;BME280;22678;52.052;4.242;2023-12-20T11:29:40;101495.31;;;9.42;91.41
36692;BME280;22678;52.052;4.242;2023-12-20T11:34:59;101513.91;;;9.73;91.60
36692;BME280;22678;52.052;4.242;2023-12-20T11:37:34;101501.66;;;9.72;91.40
36692;BME280;22678;52.052;4.242;2023-12-20T11:40:22;101514.81;;;9.78;91.45
36692;BME280;22678;52.052;4.242;2023-12-20T11:42:50;101515.66;;;9.74;91.36
36692;BME280;22678;52.052;4.242;2023-12-20T11:45:18;101498.06;;;9.56;90.30
36692;BME280;22678;52.052;4.242;2023-12-20T11:47:47;101519.97;;;9.65;90.55
36692;BME280;22678;52.052;4.242;2023-12-20T11:50:15;101525.25;;;9.69;90.31
36692;BME280;22678;52.052;4.242;2023-12-20T11:52:41;101511.19;;;9.57;90.67
36692;BME280;22678;52.052;4.242;2023-12-20T11:55:06;101509.44;;;9.59;90.91
36692;BME280;22678;52.052;4.242;2023-12-20T11:57:33;101507.75;;;9.64;90.85
36692;BME280;22678;52.052;4.242;2023-12-20T11:59:58;101496.28;;;9.56;90.25
36692;BME280;22678;52.052;4.242;2023-12-20T12:02:24;101508.59;;;9.65;90.03
36692;BME280;22678;52.052;4.242;2023-12-20T12:04:50;101515.63;;;9.69;89.82
36692;BME280;22678;52.052;4.242;2023-12-20T12:07:16;101527.03;;;9.73;89.56
36692;BME280;22678;52.052;4.242;2023-12-20T12:09:42;101532.31;;;9.77;89.88
36692;BME280;22678;52.052;4.242;2023-12-20T12:12:08;101533.22;;;9.78;89.70
36692;BME280;22678;52.052;4.242;2023-12-20T12:14:33;101528.81;;;9.77;89.21
36692;BME280;22678;52.052;4.242;2023-12-20T12:17:00;101513.03;;;9.74;89.00
36692;BME280;22678;52.052;4.242;2023-12-20T12:19:26;101523.56;;;9.77;88.63
36692;BME280;22678;52.052;4.242;2023-12-20T12:22:13;101509.56;;;9.78;88.32
36692;BME280;22678;52.052;4.242;2023-12-20T12:24:41;101514.81;;;9.75;89.05
36692;BME280;22678;52.052;4.242;2023-12-20T12:27:07;101506.94;;;9.75;89.15
36692;BME280;22678;52.052;4.242;2023-12-20T12:29:33;101486.75;;;9.68;89.61
36692;BME280;22678;52.052;4.242;2023-12-20T12:31:59;101499.06;;;9.78;89.59
36692;BME280;22678;52.052;4.242;2023-12-20T12:34:27;101496.44;;;9.79;90.26
36692;BME280;22678;52.052;4.242;2023-12-20T12:36:53;101483.31;;;9.78;90.00
36692;BME280;22678;52.052;4.242;2023-12-20T12:39:18;101465.75;;;9.71;90.01
36692;BME280;22678;52.052;4.242;2023-12-20T12:41:43;101476.25;;;9.74;90.46
36692;BME280;22678;52.052;4.242;2023-12-20T12:44:09;101471.00;;;9.74;90.48
36692;BME280;22678;52.052;4.242;2023-12-20T12:46:34;101469.34;;;9.85;90.37
36692;BME280;22678;52.052;4.242;2023-12-20T12:49:00;101460.50;;;9.69;90.39
36692;BME280;22678;52.052;4.242;2023-12-20T12:51:25;101467.53;;;9.79;90.47
36692;BME280;22678;52.052;4.242;2023-12-20T12:53:51;101464.91;;;9.78;90.50
36692;BME280;22678;52.052;4.242;2023-12-20T12:56:16;101435.91;;;9.56;90.75
36692;BME280;22678;52.052;4.242;2023-12-20T12:58:42;101463.13;;;9.74;90.57
36692;BME280;22678;52.052;4.242;2023-12-20T13:01:07;101419.25;;;9.53;90.75